Time,TemperatureF,DewpointF,PressureIn,WindDirection,WindDirectionDegrees,WindSpeedMPH,WindSpeedGustMPH,Humidity,HourlyPrecipIn,Conditions,Clouds,dailyrainin,SoftwareType,DateUTC
2013-01-29 00:09:00,33.0,18.2,30.00,SW,225,4.0,10.0,54,0.00,,---,0.00,VWS V14.01,2013-01-29 07:09:00,
2013-01-29 00:19:00,33.0,19.0,30.00,SW,225,5.0,9.0,56,0.00,,---,0.00,VWS V14.01,2013-01-29 07:19:00,
2013-01-29 00:29:00,32.0,18.5,30.01,SW,225,7.0,10.0,57,0.00,,---,0.00,VWS V14.01,2013-01-29 07:29:00,
2013-01-29 00:39:00,32.0,18.5,30.01,SE,135,5.0,10.0,57,0.00,,---,0.00,VWS V14.01,2013-01-29 07:39:00,
2013-01-29 00:49:00,32.0,18.5,30.01,WSW,247,5.0,10.0,57,0.00,,---,0.00,VWS V14.01,2013-01-29 07:49:00,
2013-01-29 00:59:00,32.0,18.9,30.00,SSW,202,7.0,9.0,58,0.00,,---,0.00,VWS V14.01,2013-01-29 07:59:00,
2013-01-29 01:09:00,32.0,18.9,29.99,SW,225,1.0,9.0,58,0.00,,---,0.00,VWS V14.01,2013-01-29 08:09:00,
2013-01-29 01:19:00,32.0,19.3,29.99,SW,225,8.0,9.0,59,0.00,,---,0.00,VWS V14.01,2013-01-29 08:19:00,
2013-01-29 01:29:00,32.0,19.7,29.99,SW,225,3.0,10.0,60,0.00,,---,0.00,VWS V14.01,2013-01-29 08:29:00,
2013-01-29 01:39:00,31.0,18.8,29.98,North,360,8.0,10.0,60,0.00,,---,0.00,VWS V14.01,2013-01-29 08:39:00,
2013-01-29 01:49:00,31.0,18.8,29.98,SW,225,9.0,11.0,60,0.00,,---,0.00,VWS V14.01,2013-01-29 08:49:00,
2013-01-29 01:59:00,31.0,18.8,29.98,WSW,247,8.0,11.0,60,0.00,,---,0.00,VWS V14.01,2013-01-29 08:59:00,
2013-01-29 02:09:00,31.0,18.8,29.98,WSW,247,10.0,10.0,60,0.00,,---,0.00,VWS V14.01,2013-01-29 09:09:00,
2013-01-29 02:19:00,31.0,18.8,29.98,WSW,247,5.0,10.0,60,0.00,,---,0.00,VWS V14.01,2013-01-29 09:19:00,
2013-01-29 02:29:00,31.0,18.8,29.98,WSW,247,8.0,10.0,60,0.00,,---,0.00,VWS V14.01,2013-01-29 09:29:00,
2013-01-29 02:39:00,30.0,18.2,29.97,WSW,247,9.0,11.0,61,0.00,,---,0.00,VWS V14.01,2013-01-29 09:39:00,
2013-01-29 02:49:00,30.0,18.6,29.97,West,270,6.0,10.0,62,0.00,,---,0.00,VWS V14.01,2013-01-29 09:49:00,
2013-01-29 02:59:00,30.0,19.0,29.96,SW,225,8.0,11.0,63,0.00,,---,0.00,VWS V14.01,2013-01-29 09:59:00,
2013-01-29 03:09:00,30.0,19.0,29.97,WSW,247,5.0,13.0,63,0.00,,---,0.00,VWS V14.01,2013-01-29 10:09:00,
2013-01-29 03:19:00,29.0,18.7,29.97,WSW,247,7.0,12.0,65,0.00,,---,0.00,VWS V14.01,2013-01-29 10:19:00,
2013-01-29 03:29:00,29.0,18.7,29.97,SW,225,0.0,12.0,65,0.00,,---,0.00,VWS V14.01,2013-01-29 10:29:00,
2013-01-29 03:39:00,29.0,18.7,29.97,WSW,247,4.0,10.0,65,0.00,,---,0.00,VWS V14.01,2013-01-29 10:39:00,
2013-01-29 03:49:00,28.0,18.5,29.96,WSW,247,9.0,9.0,67,0.00,,---,0.00,VWS V14.01,2013-01-29 10:49:00,
2013-01-29 03:59:00,28.0,18.8,29.97,SW,225,4.0,9.0,68,0.00,,---,0.00,VWS V14.01,2013-01-29 10:59:00,
2013-01-29 04:09:00,28.0,18.8,29.96,WSW,247,5.0,10.0,68,0.00,,---,0.00,VWS V14.01,2013-01-29 11:09:00,
2013-01-29 04:19:00,28.0,18.8,29.95,SW,225,6.0,11.0,68,0.00,,---,0.00,VWS V14.01,2013-01-29 11:19:00,
2013-01-29 04:29:00,29.0,19.4,29.95,WSW,247,8.0,11.0,67,0.00,,---,0.00,VWS V14.01,2013-01-29 11:29:00,
2013-01-29 04:40:00,28.0,18.8,29.95,WSW,247,10.0,12.0,68,0.00,,---,0.00,VWS V14.01,2013-01-29 11:40:00,
2013-01-29 04:50:00,28.0,19.2,29.94,SW,225,5.0,10.0,69,0.00,,---,0.00,VWS V14.01,2013-01-29 11:50:00,
2013-01-29 04:59:00,27.0,18.5,29.95,WSW,247,4.0,8.0,70,0.00,,---,0.00,VWS V14.01,2013-01-29 11:59:00,
2013-01-29 05:09:00,27.0,19.2,29.94,WSW,247,0.0,4.0,72,0.00,,---,0.00,VWS V14.01,2013-01-29 12:09:00,
2013-01-29 05:19:00,27.0,19.2,29.94,WSW,247,0.0,7.0,72,0.00,,---,0.00,VWS V14.01,2013-01-29 12:19:00,
2013-01-29 05:29:00,27.0,19.2,29.94,WSW,247,3.0,10.0,72,0.00,,---,0.00,VWS V14.01,2013-01-29 12:29:00,
2013-01-29 05:39:00,27.0,19.2,29.95,WSW,247,0.0,8.0,72,0.00,,---,0.00,VWS V14.01,2013-01-29 12:39:00,
2013-01-29 05:59:00,27.0,19.2,29.94,SW,225,3.0,17.0,72,0.00,,---,0.00,VWS V14.01,2013-01-29 12:59:00,
2013-01-29 06:09:00,27.0,19.2,29.94,WSW,247,0.0,6.0,72,0.00,,---,0.00,VWS V14.01,2013-01-29 13:09:00,
2013-01-29 06:19:00,27.0,19.5,29.94,WSW,247,0.0,0.0,73,0.00,,---,0.00,VWS V14.01,2013-01-29 13:19:00,
2013-01-29 06:29:00,27.0,19.5,29.94,WSW,247,10.0,10.0,73,0.00,,---,0.00,VWS V14.01,2013-01-29 13:29:00,
2013-01-29 06:39:00,27.0,20.1,29.94,West,270,0.0,13.0,75,0.00,,---,0.00,VWS V14.01,2013-01-29 13:39:00,
2013-01-29 06:49:00,27.0,20.1,29.94,WSW,247,0.0,0.0,75,0.00,,---,0.00,VWS V14.01,2013-01-29 13:49:00,
2013-01-29 06:59:00,27.0,20.1,29.94,West,270,0.0,0.0,75,0.00,,---,0.00,VWS V14.01,2013-01-29 13:59:00,
2013-01-29 07:09:00,27.0,20.1,29.94,North,360,0.0,0.0,75,0.00,,---,0.00,VWS V14.01,2013-01-29 14:09:00,
2013-01-29 07:19:00,27.0,20.1,29.94,West,270,0.0,8.0,75,0.00,,---,0.00,VWS V14.01,2013-01-29 14:19:00,
2013-01-29 07:29:00,27.0,19.8,29.94,West,270,0.0,8.0,74,0.00,,---,0.00,VWS V14.01,2013-01-29 14:29:00,
2013-01-29 07:39:00,27.0,19.8,29.94,West,270,0.0,0.0,74,0.00,,---,0.00,VWS V14.01,2013-01-29 14:39:00,
2013-01-29 07:49:00,26.0,19.2,29.95,North,360,0.0,0.0,75,0.00,,---,0.00,VWS V14.01,2013-01-29 14:49:00,
2013-01-29 07:59:00,26.0,19.5,29.96,North,360,0.0,0.0,76,0.00,,---,0.00,VWS V14.01,2013-01-29 14:59:00,
2013-01-29 08:10:00,28.0,19.5,29.96,WSW,247,7.0,7.0,70,0.00,,---,0.00,VWS V14.01,2013-01-29 15:10:00,
2013-01-29 08:19:00,28.0,18.5,29.96,West,270,9.0,12.0,67,0.00,,---,0.00,VWS V14.01,2013-01-29 15:19:00,
2013-01-29 08:29:00,28.0,17.8,29.96,WNW,292,5.0,13.0,65,0.00,,---,0.00,VWS V14.01,2013-01-29 15:29:00,
2013-01-29 08:39:00,28.0,17.8,29.96,WNW,292,4.0,13.0,65,0.00,,---,0.00,VWS V14.01,2013-01-29 15:39:00,
2013-01-29 08:49:00,27.0,16.5,29.96,West,270,13.0,17.0,64,0.00,,---,0.00,VWS V14.01,2013-01-29 15:49:00,
2013-01-29 08:59:00,28.0,16.3,29.96,West,270,11.0,18.0,61,0.00,,---,0.00,VWS V14.01,2013-01-29 15:59:00,
2013-01-29 09:09:00,28.0,15.9,29.96,WNW,292,8.0,24.0,60,0.00,,---,0.00,VWS V14.01,2013-01-29 16:09:00,
2013-01-29 09:19:00,28.0,15.9,29.95,West,270,12.0,17.0,60,0.00,,---,0.00,VWS V14.01,2013-01-29 16:19:00,
2013-01-29 09:29:00,28.0,15.5,29.95,WNW,292,7.0,21.0,59,0.00,,---,0.00,VWS V14.01,2013-01-29 16:29:00,
2013-01-29 09:39:00,28.0,13.5,29.95,West,270,18.0,21.0,54,0.00,,---,0.00,VWS V14.01,2013-01-29 16:39:00,
2013-01-29 09:49:00,28.0,13.1,29.95,West,270,11.0,19.0,53,0.00,,---,0.00,VWS V14.01,2013-01-29 16:49:00,
2013-01-29 09:59:00,28.0,15.5,29.94,West,270,10.0,20.0,59,0.00,,---,0.00,VWS V14.01,2013-01-29 16:59:00,
2013-01-29 10:09:00,29.0,16.1,29.94,WNW,292,8.0,24.0,58,0.00,,---,0.00,VWS V14.01,2013-01-29 17:09:00,
2013-01-29 10:19:00,28.0,15.1,29.94,West,270,13.0,23.0,58,0.00,,---,0.00,VWS V14.01,2013-01-29 17:19:00,
2013-01-29 10:29:00,28.0,16.7,29.93,West,270,22.0,29.0,62,0.00,,---,0.00,VWS V14.01,2013-01-29 17:29:00,
2013-01-29 10:39:00,27.0,18.5,29.92,West,270,12.0,29.0,70,0.00,,---,0.00,VWS V14.01,2013-01-29 17:39:00,
2013-01-29 10:49:00,27.0,18.5,29.94,West,270,13.0,23.0,70,0.00,,---,0.00,VWS V14.01,2013-01-29 17:49:00,
2013-01-29 10:59:00,27.0,16.8,29.95,WSW,247,11.0,21.0,65,0.00,,---,0.00,VWS V14.01,2013-01-29 17:59:00,
2013-01-29 11:09:00,27.0,15.4,29.96,West,270,7.0,18.0,61,0.00,,---,0.00,VWS V14.01,2013-01-29 18:09:00,
2013-01-29 11:19:00,28.0,14.8,29.95,West,270,10.0,24.0,57,0.00,,---,0.00,VWS V14.01,2013-01-29 18:19:00,
2013-01-29 11:29:00,29.0,15.3,29.95,West,270,9.0,23.0,56,0.00,,---,0.00,VWS V14.01,2013-01-29 18:29:00,
2013-01-29 11:39:00,29.0,14.4,29.95,WSW,247,14.0,22.0,54,0.00,,---,0.00,VWS V14.01,2013-01-29 18:39:00,
2013-01-29 11:49:00,30.0,13.6,29.93,West,270,13.0,22.0,50,0.00,,---,0.00,VWS V14.01,2013-01-29 18:49:00,
2013-01-29 11:59:00,30.0,13.2,29.93,West,270,5.0,28.0,49,0.00,,---,0.00,VWS V14.01,2013-01-29 18:59:00,
2013-01-29 12:09:00,30.0,12.7,29.93,WSW,247,12.0,19.0,48,0.00,,---,0.00,VWS V14.01,2013-01-29 19:09:00,
2013-01-29 12:19:00,29.0,12.2,29.93,West,270,15.0,25.0,49,0.00,,---,0.00,VWS V14.01,2013-01-29 19:19:00,
2013-01-29 12:29:00,30.0,12.2,29.92,WNW,292,8.0,26.0,47,0.00,,---,0.00,VWS V14.01,2013-01-29 19:29:00,
2013-01-29 12:39:00,30.0,9.7,29.93,West,270,19.0,23.0,42,0.00,,---,0.00,VWS V14.01,2013-01-29 19:39:00,
2013-01-29 12:49:00,30.0,9.7,29.93,West,270,4.0,22.0,42,0.00,,---,0.00,VWS V14.01,2013-01-29 19:49:00,
2013-01-29 12:59:00,30.0,8.6,29.91,West,270,13.0,27.0,40,0.00,,---,0.00,VWS V14.01,2013-01-29 19:59:00,
2013-01-29 13:09:00,29.0,8.3,29.92,WNW,292,17.0,30.0,41,0.00,,---,0.00,VWS V14.01,2013-01-29 20:09:00,
2013-01-29 13:19:00,30.0,8.1,29.92,West,270,32.0,32.0,39,0.00,,---,0.00,VWS V14.01,2013-01-29 20:19:00,
2013-01-29 13:29:00,30.0,7.5,29.90,West,270,20.0,39.0,38,0.00,,---,0.00,VWS V14.01,2013-01-29 20:29:00,
2013-01-29 13:39:00,29.0,6.0,29.88,West,270,17.0,43.0,37,0.01,,---,0.01,VWS V14.01,2013-01-29 20:39:00,
2013-01-29 13:49:00,29.0,6.0,29.90,West,270,19.0,43.0,37,0.01,,---,0.01,VWS V14.01,2013-01-29 20:49:00,
2013-01-29 13:59:00,30.0,6.3,29.91,WNW,292,17.0,40.0,36,0.01,,---,0.01,VWS V14.01,2013-01-29 20:59:00,
2013-01-29 14:09:00,30.0,6.3,29.88,West,270,23.0,37.0,36,0.01,,---,0.01,VWS V14.01,2013-01-29 21:09:00,
2013-01-29 14:19:00,30.0,6.3,29.90,West,270,17.0,34.0,36,0.01,,---,0.01,VWS V14.01,2013-01-29 21:19:00,
2013-01-29 14:29:00,30.0,5.1,29.90,West,270,28.0,41.0,34,0.01,,---,0.01,VWS V14.01,2013-01-29 21:29:00,
2013-01-29 14:39:00,30.0,5.1,29.90,SW,225,16.0,40.0,34,0.01,,---,0.01,VWS V14.01,2013-01-29 21:39:00,
2013-01-29 14:49:00,31.0,3.2,29.88,West,270,27.0,42.0,30,0.00,,---,0.01,VWS V14.01,2013-01-29 21:49:00,
2013-01-29 14:59:00,31.0,4.6,29.86,WSW,247,35.0,47.0,32,0.00,,---,0.01,VWS V14.01,2013-01-29 21:59:00,
2013-01-29 15:09:00,31.0,5.3,29.85,West,270,26.0,46.0,33,0.00,,---,0.01,VWS V14.01,2013-01-29 22:09:00,
2013-01-29 15:19:00,30.0,3.7,29.88,WSW,247,27.0,43.0,32,0.03,,---,0.04,VWS V14.01,2013-01-29 22:19:00,
2013-01-29 15:29:00,31.0,4.6,29.89,West,270,29.0,44.0,32,0.03,,---,0.04,VWS V14.01,2013-01-29 22:29:00,
2013-01-29 15:39:00,30.0,3.7,29.89,WNW,292,20.0,43.0,32,0.03,,---,0.04,VWS V14.01,2013-01-29 22:39:00,
2013-01-29 15:49:00,30.0,4.4,29.91,West,270,23.0,41.0,33,0.03,,---,0.04,VWS V14.01,2013-01-29 22:49:00,
2013-01-29 15:59:00,30.0,4.4,29.92,WNW,292,23.0,41.0,33,0.03,,---,0.04,VWS V14.01,2013-01-29 22:59:00,
2013-01-29 16:09:00,30.0,5.1,29.93,West,270,22.0,38.0,34,0.03,,---,0.04,VWS V14.01,2013-01-29 23:09:00,
2013-01-29 16:19:00,30.0,5.7,29.91,WNW,292,24.0,39.0,35,0.03,,---,0.04,VWS V14.01,2013-01-29 23:19:00,
2013-01-29 16:30:00,30.0,5.7,29.94,WNW,292,20.0,41.0,35,0.00,,---,0.04,VWS V14.01,2013-01-29 23:30:00,
2013-01-29 16:39:00,30.0,6.3,29.93,West,270,28.0,34.0,36,0.00,,---,0.04,VWS V14.01,2013-01-29 23:39:00,
2013-01-29 16:49:00,30.0,6.3,29.94,West,270,23.0,31.0,36,0.00,,---,0.04,VWS V14.01,2013-01-29 23:49:00,
2013-01-29 16:59:00,30.0,6.9,29.94,West,270,13.0,23.0,37,0.00,,---,0.04,VWS V14.01,2013-01-29 23:59:00,
2013-01-29 17:09:00,29.0,6.6,29.95,West,270,23.0,34.0,38,0.00,,---,0.04,VWS V14.01,2013-01-30 00:09:00,
2013-01-29 17:19:00,29.0,7.2,29.94,West,270,23.0,36.0,39,0.00,,---,0.04,VWS V14.01,2013-01-30 00:19:00,
2013-01-29 17:29:00,28.0,7.4,29.96,West,270,22.0,30.0,41,0.00,,---,0.04,VWS V14.01,2013-01-30 00:29:00,
2013-01-29 17:39:00,28.0,8.4,29.97,West,270,16.0,31.0,43,0.00,,---,0.04,VWS V14.01,2013-01-30 00:39:00,
2013-01-29 17:49:00,28.0,8.4,29.98,West,270,27.0,34.0,43,0.00,,---,0.04,VWS V14.01,2013-01-30 00:49:00,
2013-01-29 17:59:00,27.0,8.5,29.98,West,270,35.0,35.0,45,0.00,,---,0.04,VWS V14.01,2013-01-30 00:59:00,
2013-01-29 18:09:00,27.0,8.5,29.96,West,270,17.0,37.0,45,0.00,,---,0.04,VWS V14.01,2013-01-30 01:09:00,
2013-01-29 18:19:00,28.0,9.4,29.96,West,270,30.0,35.0,45,0.00,,---,0.04,VWS V14.01,2013-01-30 01:19:00,
2013-01-29 18:29:00,27.0,8.5,29.97,West,270,18.0,43.0,45,0.00,,---,0.04,VWS V14.01,2013-01-30 01:29:00,
2013-01-29 18:39:00,27.0,8.5,30.00,WNW,292,30.0,36.0,45,0.00,,---,0.04,VWS V14.01,2013-01-30 01:39:00,
2013-01-29 18:49:00,27.0,9.5,29.98,West,270,22.0,33.0,47,0.00,,---,0.04,VWS V14.01,2013-01-30 01:49:00,
2013-01-29 18:59:00,27.0,9.9,30.00,West,270,32.0,38.0,48,0.00,,---,0.04,VWS V14.01,2013-01-30 01:59:00,
2013-01-29 19:09:00,27.0,9.9,30.00,West,270,21.0,39.0,48,0.00,,---,0.04,VWS V14.01,2013-01-30 02:09:00,
2013-01-29 19:19:00,27.0,10.4,30.00,West,270,22.0,31.0,49,0.00,,---,0.04,VWS V14.01,2013-01-30 02:19:00,
2013-01-29 19:29:00,27.0,10.9,30.02,West,270,21.0,39.0,50,0.00,,---,0.04,VWS V14.01,2013-01-30 02:29:00,
2013-01-29 19:39:00,26.0,10.4,30.00,ESE,112,21.0,43.0,51,0.00,,---,0.04,VWS V14.01,2013-01-30 02:39:00,
2013-01-29 19:49:00,26.0,10.8,30.04,West,270,6.0,33.0,52,0.00,,---,0.04,VWS V14.01,2013-01-30 02:49:00,
2013-01-29 19:59:00,26.0,10.8,30.05,WNW,292,15.0,26.0,52,0.00,,---,0.04,VWS V14.01,2013-01-30 02:59:00,
2013-01-29 20:09:00,26.0,11.2,30.06,West,270,12.0,23.0,53,0.00,,---,0.04,VWS V14.01,2013-01-30 03:09:00,
2013-01-29 20:19:00,26.0,11.2,30.04,West,270,15.0,23.0,53,0.00,,---,0.04,VWS V14.01,2013-01-30 03:19:00,
2013-01-29 20:29:00,25.0,10.3,30.06,West,270,17.0,25.0,53,0.00,,---,0.04,VWS V14.01,2013-01-30 03:29:00,
2013-01-29 20:39:00,25.0,10.7,30.07,West,270,12.0,25.0,54,0.00,,---,0.04,VWS V14.01,2013-01-30 03:39:00,
2013-01-29 20:49:00,25.0,11.1,30.07,NNE,22,19.0,27.0,55,0.00,,---,0.04,VWS V14.01,2013-01-30 03:49:00,
2013-01-29 20:59:00,25.0,11.5,30.07,WNW,292,12.0,27.0,56,0.00,,---,0.04,VWS V14.01,2013-01-30 03:59:00,
2013-01-29 21:09:00,25.0,11.5,30.08,West,270,21.0,31.0,56,0.00,,---,0.04,VWS V14.01,2013-01-30 04:09:00,
2013-01-29 21:19:00,25.0,11.9,30.07,WSW,247,14.0,31.0,57,0.00,,---,0.04,VWS V14.01,2013-01-30 04:19:00,
2013-01-29 21:29:00,25.0,12.3,30.08,East,90,26.0,26.0,58,0.00,,---,0.04,VWS V14.01,2013-01-30 04:29:00,
2013-01-29 21:39:00,25.0,12.7,30.07,West,270,13.0,31.0,59,0.00,,---,0.04,VWS V14.01,2013-01-30 04:39:00,
2013-01-29 21:49:00,24.0,12.1,30.08,WNW,292,21.0,28.0,60,0.00,,---,0.04,VWS V14.01,2013-01-30 04:49:00,
2013-01-29 21:59:00,24.0,12.5,30.08,WSW,247,15.0,24.0,61,0.00,,---,0.04,VWS V14.01,2013-01-30 04:59:00,
2013-01-29 22:09:00,24.0,12.5,30.09,West,270,15.0,27.0,61,0.00,,---,0.04,VWS V14.01,2013-01-30 05:09:00,
2013-01-29 22:19:00,24.0,12.9,30.09,West,270,19.0,26.0,62,0.00,,---,0.04,VWS V14.01,2013-01-30 05:19:00,
2013-01-29 22:29:00,24.0,13.2,30.09,WNW,292,15.0,27.0,63,0.00,,---,0.04,VWS V14.01,2013-01-30 05:29:00,
2013-01-29 22:39:00,24.0,13.6,30.11,West,270,11.0,24.0,64,0.00,,---,0.04,VWS V14.01,2013-01-30 05:39:00,
2013-01-29 22:49:00,24.0,13.6,30.11,West,270,10.0,20.0,64,0.00,,---,0.04,VWS V14.01,2013-01-30 05:49:00,
2013-01-29 22:59:00,24.0,14.3,30.12,West,270,12.0,21.0,66,0.00,,---,0.04,VWS V14.01,2013-01-30 05:59:00,
2013-01-29 23:09:00,23.0,14.0,30.12,WNW,292,12.0,18.0,68,0.00,,---,0.04,VWS V14.01,2013-01-30 06:09:00,
2013-01-29 23:19:00,23.0,14.4,30.14,West,270,12.0,22.0,69,0.00,,---,0.04,VWS V14.01,2013-01-30 06:19:00,
2013-01-29 23:29:00,23.0,14.7,30.14,West,270,12.0,19.0,70,0.00,,---,0.04,VWS V14.01,2013-01-30 06:29:00,
2013-01-29 23:39:00,23.0,14.4,30.15,West,270,10.0,21.0,69,0.00,,---,0.04,VWS V14.01,2013-01-30 06:39:00,
2013-01-29 23:49:00,23.0,14.0,30.14,West,270,13.0,27.0,68,0.00,,---,0.04,VWS V14.01,2013-01-30 06:49:00,
2013-01-29 23:59:00,23.0,14.0,30.14,West,270,25.0,27.0,68,0.00,,---,0.00,VWS V14.01,2013-01-30 06:59:00,